createdAt,value
2023-05-05T00:02:40.173Z,3794
2023-05-05T00:07:41.547Z,3794
2023-05-05T00:12:42.916Z,8744
2023-05-05T00:17:44.346Z,10210.66667
2023-05-05T00:22:45.752Z,10210.66667
2023-05-05T00:27:47.213Z,8744
2023-05-05T00:32:48.590Z,12264
2023-05-05T00:37:49.904Z,12264
2023-05-05T00:42:51.137Z,10210.66667
2023-05-05T00:47:52.497Z,8744
2023-05-05T00:52:53.877Z,7644
2023-05-05T00:57:55.282Z,8744
2023-05-05T01:02:57.515Z,12264
2023-05-05T01:07:58.856Z,8744
2023-05-05T01:13:00.305Z,12264
2023-05-05T01:18:01.720Z,12264
2023-05-05T01:23:03.057Z,10210.66667
2023-05-05T01:28:04.630Z,6104
2023-05-05T01:33:06.400Z,4344
2023-05-05T01:38:08.003Z,4050.66667
2023-05-05T01:43:09.623Z,4050.66667
2023-05-05T01:48:11.529Z,3366.22222
2023-05-05T01:53:12.787Z,3366.22222
2023-05-05T01:58:14.025Z,5544
2023-05-05T02:03:15.557Z,10210.66667
2023-05-05T02:08:16.896Z,12264
2023-05-05T02:13:18.424Z,30744
2023-05-05T02:18:19.729Z,61544
2023-05-05T02:23:20.965Z,61544
2023-05-05T02:28:22.197Z,61544
2023-05-05T02:33:23.473Z,0
2023-05-05T02:38:24.721Z,61544
2023-05-05T02:43:26.058Z,30744
2023-05-05T02:48:27.368Z,20477.33333
2023-05-05T02:53:28.700Z,20477.33333
2023-05-05T02:58:29.998Z,12264
2023-05-05T03:03:31.348Z,6788.44444
2023-05-05T03:08:32.657Z,4344
2023-05-05T03:13:33.866Z,2877.33333
2023-05-05T03:18:35.168Z,2510.66667
2023-05-05T03:23:36.880Z,2068.13793
2023-05-05T03:28:38.197Z,1997.33333
2023-05-05T03:33:39.946Z,2510.66667
2023-05-05T03:38:41.645Z,1997.33333
2023-05-05T03:43:43.282Z,1931.09677
2023-05-05T03:48:44.876Z,1608.86486
2023-05-05T03:53:46.115Z,1565.05263
2023-05-05T03:58:47.411Z,1755.76471
2023-05-05T04:03:49.021Z,1755.76471
2023-05-05T04:08:50.358Z,1484
2023-05-05T04:13:51.641Z,1484
2023-05-05T04:18:52.939Z,1201.14286
2023-05-05T04:23:54.198Z,1006.06897
2023-05-05T04:28:55.462Z,988.0678
2023-05-05T04:33:56.745Z,863.40299
2023-05-05T04:38:58.012Z,824
2023-05-05T04:43:59.318Z,836.75362
2023-05-05T04:49:00.719Z,824
2023-05-05T04:54:02.006Z,811.60563
2023-05-05T04:59:03.323Z,776.43243
2023-05-05T05:04:05.111Z,765.33333
2023-05-05T05:09:06.588Z,744
2023-05-05T05:14:07.853Z,754.52632
2023-05-05T05:19:09.423Z,765.33333
2023-05-05T05:24:10.684Z,754.52632
2023-05-05T05:29:12.230Z,723.74684
2023-05-05T05:34:13.837Z,723.74684
2023-05-05T05:39:15.248Z,754.52632
2023-05-05T05:44:16.828Z,1024.70175
2023-05-05T05:49:18.650Z,937.54839
2023-05-05T05:54:20.398Z,891.69231
2023-05-05T05:59:22.194Z,1024.70175
2023-05-05T06:04:23.767Z,953.83607
2023-05-05T06:09:25.429Z,1151.84314
2023-05-05T06:14:26.965Z,1128.61538
2023-05-05T06:19:28.554Z,953.83607
2023-05-05T06:24:30.217Z,953.83607
2023-05-05T06:29:31.815Z,970.66667
2023-05-05T06:34:33.160Z,988.0678
2023-05-05T06:39:34.798Z,1064
2023-05-05T06:44:36.046Z,1128.61538
2023-05-05T06:49:37.454Z,1283.13043
2023-05-05T06:54:38.727Z,1565.05263
2023-05-05T06:59:40.037Z,1565.05263
2023-05-05T07:04:41.488Z,1446.43902
2023-05-05T07:09:42.928Z,1446.43902
2023-05-05T07:14:44.589Z,1484
2023-05-05T07:19:46.345Z,1704
2023-05-05T07:24:49.672Z,1655.11111
2023-05-05T07:29:51.115Z,1655.11111
2023-05-05T07:34:52.421Z,1869
2023-05-05T07:39:53.832Z,1997.33333
2023-05-05T07:44:55.117Z,1931.09677
2023-05-05T07:49:56.396Z,3186.10526
2023-05-05T07:54:57.865Z,2225.48148
2023-05-05T07:59:59.132Z,3024
2023-05-05T08:05:00.406Z,2877.33333
2023-05-05T08:10:01.845Z,4344
2023-05-05T08:15:03.467Z,6788.44444
2023-05-05T08:20:04.847Z,8744
2023-05-05T08:25:06.473Z,6788.44444
2023-05-05T08:30:08.277Z,3794
2023-05-05T08:35:10.133Z,20477.33333
2023-05-05T08:40:12.038Z,20477.33333
2023-05-05T08:45:13.637Z,20477.33333
2023-05-05T08:50:15.305Z,30744
2023-05-05T08:55:16.894Z,30744
2023-05-05T09:00:18.690Z,61544
2023-05-05T09:05:20.489Z,30744
2023-05-05T09:10:22.332Z,61544
2023-05-05T09:15:23.978Z,61544
2023-05-05T09:20:25.652Z,61544
2023-05-05T09:25:27.230Z,61544
2023-05-05T09:30:28.793Z,61544
2023-05-05T09:35:30.380Z,61544
2023-05-05T09:40:31.884Z,61544
2023-05-05T09:45:33.424Z,61544
2023-05-05T09:50:34.975Z,61544
2023-05-05T09:55:36.634Z,61544
2023-05-05T10:00:38.121Z,61544
2023-05-05T10:05:39.706Z,0
2023-05-05T10:10:41.211Z,61544
2023-05-05T10:15:43.179Z,0
2023-05-05T10:20:44.516Z,61544
2023-05-05T10:25:45.993Z,61544
2023-05-05T10:30:47.484Z,0
2023-05-05T10:35:49.114Z,0
2023-05-05T10:40:50.581Z,61544
2023-05-05T10:45:52.414Z,0
2023-05-05T10:50:53.964Z,0
2023-05-05T10:55:55.226Z,0
2023-05-05T11:00:56.628Z,0
2023-05-05T11:05:58.055Z,0
2023-05-05T11:10:59.334Z,0
2023-05-05T11:16:00.718Z,0
2023-05-05T11:21:02.002Z,0
2023-05-05T11:26:03.413Z,0
2023-05-05T11:31:04.726Z,0
2023-05-05T11:36:06.948Z,0
2023-05-05T11:41:09.000Z,0
2023-05-05T11:46:10.669Z,0
2023-05-05T11:51:12.337Z,0
2023-05-05T11:56:14.002Z,0
2023-05-05T12:01:15.605Z,0
2023-05-05T12:06:17.199Z,0
2023-05-05T12:11:18.953Z,0
2023-05-05T12:16:20.554Z,0
2023-05-05T12:21:22.140Z,0
2023-05-05T12:26:23.784Z,61544
2023-05-05T12:31:25.484Z,61544
2023-05-05T12:36:29.211Z,0
2023-05-05T12:41:32.116Z,0
2023-05-05T12:46:33.837Z,0
2023-05-05T12:51:35.617Z,0
2023-05-05T12:56:37.178Z,0
2023-05-05T13:01:38.821Z,61544
2023-05-05T13:06:40.559Z,61544
2023-05-05T13:11:42.419Z,61544
2023-05-05T13:16:44.056Z,20477.33333
2023-05-05T13:21:45.654Z,15344
2023-05-05T13:26:47.239Z,61544
2023-05-05T13:31:49.152Z,61544
2023-05-05T13:36:50.913Z,61544
2023-05-05T13:41:52.465Z,30744
2023-05-05T13:46:53.987Z,30744
2023-05-05T13:51:55.386Z,0
2023-05-05T13:56:56.674Z,0
2023-05-05T14:01:57.940Z,0
2023-05-05T14:06:59.300Z,0
2023-05-05T14:12:00.678Z,30744
2023-05-05T14:17:02.207Z,20477.33333
2023-05-05T14:22:03.674Z,10210.66667
2023-05-05T14:27:04.955Z,3366.22222
2023-05-05T14:32:06.265Z,6104
2023-05-05T14:37:07.959Z,7644
2023-05-05T14:42:09.510Z,3794
2023-05-05T14:47:10.967Z,2744
2023-05-05T14:52:12.369Z,2313.23077
2023-05-05T14:57:13.638Z,2877.33333
2023-05-05T15:02:15.214Z,2225.48148
2023-05-05T15:07:16.749Z,1810.66667
2023-05-05T15:12:18.322Z,1655.11111
2023-05-05T15:17:19.927Z,1869
2023-05-05T15:22:21.572Z,1997.33333
2023-05-05T15:27:23.277Z,1810.66667
2023-05-05T15:32:24.874Z,1931.09677
2023-05-05T15:37:26.435Z,2744
2023-05-05T15:42:28.153Z,1997.33333
2023-05-05T15:47:29.634Z,1931.09677
2023-05-05T15:52:31.142Z,3366.22222
2023-05-05T15:57:32.742Z,2744
2023-05-05T16:02:34.436Z,1608.86486
2023-05-05T16:07:35.898Z,1704
2023-05-05T16:12:37.507Z,2144
2023-05-05T16:17:39.095Z,6788.44444
2023-05-05T16:22:40.720Z,5077.33333
2023-05-05T16:27:42.336Z,4344
2023-05-05T16:32:43.988Z,3567.52941
2023-05-05T16:37:45.667Z,2510.66667
2023-05-05T16:42:47.331Z,2225.48148
2023-05-05T16:47:49.185Z,2408
2023-05-05T16:52:50.996Z,2408
2023-05-05T16:57:52.586Z,2744
2023-05-05T17:02:54.157Z,2622.26087
2023-05-05T17:07:55.463Z,2225.48148
2023-05-05T17:12:56.753Z,2225.48148
2023-05-05T17:17:58.134Z,2510.66667
2023-05-05T17:22:59.487Z,3186.10526
2023-05-05T17:28:00.773Z,3186.10526
2023-05-05T17:33:02.288Z,3024
2023-05-05T17:38:03.674Z,3794
2023-05-05T17:43:04.929Z,3186.10526
2023-05-05T17:48:06.301Z,4682.46154
2023-05-05T17:53:07.576Z,5077.33333
2023-05-05T17:58:08.805Z,4050.66667
2023-05-05T18:03:10.182Z,4344
2023-05-05T18:08:11.648Z,4344
2023-05-05T18:13:13.016Z,3567.52941
2023-05-05T18:18:14.292Z,2877.33333
2023-05-05T18:23:15.614Z,3567.52941
2023-05-05T18:28:16.896Z,3794
2023-05-05T18:33:18.186Z,4344
2023-05-05T18:38:19.672Z,4344
2023-05-05T18:43:21.275Z,3366.22222
2023-05-05T18:48:22.854Z,2622.26087
2023-05-05T18:53:24.788Z,2877.33333
2023-05-05T18:58:26.388Z,2744
2023-05-05T19:03:28.223Z,2144
2023-05-05T19:08:29.725Z,2408
2023-05-05T19:13:31.299Z,2408
2023-05-05T19:18:32.872Z,2225.48148
2023-05-05T19:23:34.730Z,2068.13793
2023-05-05T19:28:36.301Z,1869
2023-05-05T19:33:37.923Z,1869
2023-05-05T19:38:40.063Z,1655.11111
2023-05-05T19:43:41.611Z,1869
2023-05-05T19:48:43.193Z,1446.43902
2023-05-05T19:53:44.875Z,1410.66667
2023-05-05T19:58:46.449Z,1484
2023-05-05T20:03:50.829Z,1312.88889
2023-05-05T20:08:52.623Z,1484
2023-05-05T20:13:54.561Z,1523.48718
2023-05-05T20:18:56.052Z,1312.88889
2023-05-05T20:23:57.474Z,1201.14286
2023-05-05T20:28:58.823Z,1201.14286
2023-05-05T20:34:00.191Z,1128.61538
2023-05-05T20:39:01.597Z,953.83607
2023-05-05T20:44:03.022Z,906.5
2023-05-05T20:49:04.421Z,921.77778
2023-05-05T20:54:05.918Z,906.5
2023-05-05T20:59:07.355Z,1084.74074
2023-05-05T21:04:08.780Z,1227.33333
2023-05-05T21:09:10.340Z,1227.33333
2023-05-05T21:14:11.724Z,1024.70175
2023-05-05T21:19:13.073Z,970.66667
2023-05-05T21:24:14.321Z,1024.70175
2023-05-05T21:29:15.611Z,1128.61538
2023-05-05T21:34:17.018Z,1176
2023-05-05T21:39:18.295Z,1106.26415
2023-05-05T21:44:19.862Z,1024.70175
2023-05-05T21:49:21.318Z,988.0678
2023-05-05T21:54:22.661Z,988.0678
2023-05-05T21:59:24.207Z,988.0678
2023-05-05T22:04:25.453Z,970.66667
2023-05-05T22:09:26.798Z,988.0678
2023-05-05T22:14:28.061Z,988.0678
2023-05-05T22:19:29.297Z,1024.70175
2023-05-05T22:24:30.596Z,1006.06897
2023-05-05T22:29:31.966Z,1128.61538
2023-05-05T22:34:33.289Z,1151.84314
2023-05-05T22:39:34.864Z,1084.74074
2023-05-05T22:44:36.149Z,1106.26415
2023-05-05T22:49:37.580Z,1106.26415
2023-05-05T22:54:39.125Z,1176
2023-05-05T22:59:40.571Z,1084.74074
2023-05-05T23:04:41.948Z,1128.61538
2023-05-05T23:09:43.414Z,1151.84314
2023-05-05T23:14:44.682Z,1106.26415
2023-05-05T23:19:45.933Z,1227.33333
2023-05-05T23:24:47.236Z,1106.26415
2023-05-05T23:29:48.466Z,1227.33333
2023-05-05T23:34:49.878Z,1128.61538
2023-05-05T23:39:51.251Z,988.0678
2023-05-05T23:44:52.517Z,1064
2023-05-05T23:49:53.877Z,1024.70175
2023-05-05T23:54:55.230Z,1044
2023-05-05T23:59:56.529Z,953.83607
